Time;durP1;ratioP1;P1;durP2;ratioP2;P2;SDS_P1;SDS_P2;PMS_P1;PMS_P2;Temp;Humidity;BMP_temperature;BMP_pressure;BME280_temperature;BME280_humidity;BME280_pressure;Samples;Min_cycle;Max_cycle;Signal;HPM_P1;HPM_P2
2021/08/09 04:53:36;;;;;;;1.58;1.48;;;18.20;99.90;;;;;;3644532;28;20236;-78
2021/08/09 04:56:03;;;;;;;1.58;1.45;;;18.20;99.90;;;;;;4995623;28;20201;-78
2021/08/09 04:58:30;;;;;;;1.40;1.10;;;18.20;99.90;;;;;;4989375;28;20201;-78
2021/08/09 05:14:42;;;;;;;4.10;1.50;;;18.10;99.90;;;;;;4984971;28;20192;-78
2021/08/09 05:17:09;;;;;;;2.10;1.35;;;18.10;99.90;;;;;;4994103;28;20665;-79
2021/08/09 05:19:36;;;;;;;1.60;1.40;;;18.10;99.90;;;;;;4992256;28;20229;-80
2021/08/09 05:22:03;;;;;;;2.72;1.40;;;18.10;99.90;;;;;;4987962;28;20198;-79
2021/08/09 05:24:31;;;;;;;1.70;1.15;;;18.10;99.90;;;;;;4996012;28;20676;-79
2021/08/09 05:26:58;;;;;;;1.60;1.42;;;18.10;99.90;;;;;;4995077;28;20200;-79
2021/08/09 05:29:24;;;;;;;1.52;1.27;;;18.10;99.90;;;;;;4994571;28;20208;-79
2021/08/09 05:31:52;;;;;;;1.55;1.20;;;18.10;99.90;;;;;;4995918;28;20200;-79
2021/08/09 05:48:40;;;;;;;2.38;1.55;;;18.20;99.90;;;;;;4989343;28;20240;-79
2021/08/09 05:51:08;;;;;;;3.60;1.85;;;18.20;99.90;;;;;;4982893;28;20213;-78
2021/08/09 05:53:35;;;;;;;2.47;1.52;;;18.30;99.90;;;;;;4985385;28;20213;-79
2021/08/09 05:56:02;;;;;;;1.25;1.15;;;18.30;99.90;;;;;;4993952;28;20190;-78
2021/08/09 05:58:28;;;;;;;1.60;1.50;;;18.30;99.90;;;;;;4987175;28;20198;-78
2021/08/09 06:00:55;;;;;;;1.27;1.17;;;18.40;99.90;;;;;;4993790;28;20190;-78
2021/08/09 06:03:23;;;;;;;2.00;1.40;;;18.40;99.90;;;;;;4993922;28;20200;-78
2021/08/09 06:05:52;;;;;;;1.83;1.30;;;18.60;99.90;;;;;;4993965;28;20198;-78
2021/08/09 06:19:15;;;;;;;2.38;1.63;;;18.60;99.90;;;;;;4983079;28;20239;-77
2021/08/09 06:22:11;;;;;;;1.52;1.42;;;18.70;99.90;;;;;;4991429;28;20189;-77
2021/08/09 06:24:38;;;;;;;2.08;1.20;;;18.80;99.90;;;;;;4992675;28;20220;-78
2021/08/09 06:27:05;;;;;;;1.42;1.33;;;18.90;99.90;;;;;;4993143;28;20639;-81
2021/08/09 06:29:31;;;;;;;2.00;1.52;;;18.90;99.90;;;;;;4993566;28;20208;-77
2021/08/09 06:31:58;;;;;;;1.52;1.20;;;18.90;99.90;;;;;;4992324;28;20651;-77
2021/08/09 06:34:25;;;;;;;1.70;1.17;;;18.80;99.90;;;;;;4992532;28;20555;-78
2021/08/09 06:36:52;;;;;;;1.80;1.70;;;18.90;99.90;;;;;;4992180;28;20197;-80
2021/08/09 06:39:21;;;;;;;1.45;1.30;;;18.80;99.90;;;;;;4994723;28;20197;-78
2021/08/09 06:52:32;;;;;;;1.25;1.15;;;18.90;99.90;;;;;;4972948;28;20625;-76
2021/08/09 06:55:20;;;;;;;1.50;1.40;;;18.90;99.90;;;;;;3526686;28;22105;-76
2021/08/09 06:57:46;;;;;;;2.75;1.10;;;18.90;99.90;;;;;;4951443;29;20198;-76
2021/08/09 07:00:14;;;;;;;1.90;1.20;;;18.90;99.90;;;;;;4949583;28;20214;-75
2021/08/09 07:02:40;;;;;;;1.42;1.00;;;18.90;99.90;;;;;;4949546;29;20210;-76
2021/08/09 07:05:09;;;;;;;3.15;1.30;;;18.90;99.90;;;;;;4948533;29;20199;-76
2021/08/09 07:07:38;;;;;;;2.60;1.58;;;18.90;99.90;;;;;;4951206;29;20207;-76
2021/08/09 07:10:05;;;;;;;4.55;1.40;;;18.90;99.90;;;;;;4951909;29;20210;-76
2021/08/09 07:12:33;;;;;;;2.28;1.30;;;18.90;99.90;;;;;;4951469;29;20217;-76
2021/08/09 07:25:22;;;;;;;1.52;1.42;;;18.80;99.90;;;;;;4951069;29;20206;-76
2021/08/09 07:28:27;;;;;;;1.92;1.45;;;18.80;99.90;;;;;;4949642;29;20198;-76
2021/08/09 07:30:53;;;;;;;1.95;1.40;;;18.70;99.90;;;;;;4950250;29;20205;-76
2021/08/09 07:33:20;;;;;;;2.25;1.98;;;18.80;99.90;;;;;;4950220;29;20226;-76
2021/08/09 07:35:47;;;;;;;1.73;1.48;;;18.70;99.90;;;;;;4949980;28;20203;-75
2021/08/09 07:38:14;;;;;;;2.60;1.20;;;18.70;99.90;;;;;;4951803;28;20238;-76
2021/08/09 07:40:41;;;;;;;1.60;1.50;;;18.70;99.90;;;;;;4952314;29;20207;-76
2021/08/09 07:43:07;;;;;;;1.75;1.30;;;18.70;99.90;;;;;;4951423;29;20199;-75
2021/08/09 08:02:25;;;;;;;2.90;1.60;;;18.70;99.90;;;;;;4993220;28;20184;-75
2021/08/09 08:04:52;;;;;;;1.92;1.50;;;18.70;99.90;;;;;;4993698;28;20198;-75
2021/08/09 08:07:19;;;;;;;3.13;1.60;;;18.70;99.90;;;;;;4993315;28;20292;-76
2021/08/09 08:09:46;;;;;;;2.45;1.50;;;18.80;99.90;;;;;;4993527;28;20212;-76
2021/08/09 08:12:12;;;;;;;1.73;1.63;;;18.80;99.90;;;;;;4979148;28;20202;-76
2021/08/09 08:14:39;;;;;;;1.20;1.05;;;18.80;99.90;;;;;;4993952;28;20246;-76
2021/08/09 08:17:06;;;;;;;2.05;1.85;;;18.90;99.90;;;;;;4993115;28;20205;-75
2021/08/09 08:29:59;;;;;;;2.38;1.20;;;19.40;99.90;;;;;;4993061;28;20165;-76
2021/08/09 08:32:51;;;;;;;2.30;1.40;;;19.80;99.90;;;;;;4992491;28;20659;-76
2021/08/09 08:35:17;;;;;;;1.33;1.20;;;20.00;99.90;;;;;;4992520;28;20196;-76
2021/08/09 08:37:44;;;;;;;1.80;1.60;;;20.10;99.90;;;;;;4992815;28;20208;-76
2021/08/09 08:40:12;;;;;;;2.05;1.30;;;20.20;99.90;;;;;;4992966;28;20221;-76
2021/08/09 08:42:39;;;;;;;1.75;1.30;;;20.20;99.90;;;;;;4993430;28;20249;-75
2021/08/09 08:45:09;;;;;;;2.00;1.10;;;20.30;99.90;;;;;;4973283;28;20198;-76
2021/08/09 08:47:37;;;;;;;2.13;1.38;;;20.30;99.90;;;;;;4990878;28;20208;-75
2021/08/09 09:07:01;;;;;;;2.60;1.30;;;20.70;99.90;;;;;;4990492;28;20185;-76
2021/08/09 09:09:29;;;;;;;1.63;1.20;;;20.70;99.90;;;;;;4991039;28;20208;-76
2021/08/09 09:11:56;;;;;;;1.42;1.10;;;20.80;99.90;;;;;;4995663;28;20573;-76
2021/08/09 09:14:28;;;;;;;2.33;1.83;;;20.80;99.90;;;;;;5011724;28;20213;-76
2021/08/09 09:16:56;;;;;;;2.42;1.02;;;20.90;99.90;;;;;;5011994;28;20208;-76
2021/08/09 09:19:32;;;;;;;3.33;1.13;;;21.00;99.90;;;;;;4992083;28;20657;-75
2021/08/09 09:36:03;;;;;;;1.70;1.30;;;21.20;99.90;;;;;;4984778;28;20309;-76
2021/08/09 09:38:39;;;;;;;2.33;1.15;;;21.30;99.90;;;;;;4989789;28;20201;-76
2021/08/09 09:41:07;;;;;;;1.88;1.10;;;21.40;99.90;;;;;;4978240;28;20288;-76
2021/08/09 09:43:41;;;;;;;1.85;1.65;;;21.40;99.90;;;;;;4971762;28;20245;-76
2021/08/09 09:46:19;;;;;;;1.58;1.10;;;21.50;99.90;;;;;;4973097;28;20201;-76
2021/08/09 09:48:46;;;;;;;1.10;0.93;;;21.50;99.90;;;;;;4972570;28;20205;-75
2021/08/09 18:06:40;;;;;;;1.37;1.27;;;22.20;99.90;;;;;;3496320;28;20511;-75
2021/08/09 18:09:07;;;;;;;2.90;1.40;;;22.20;99.90;;;;;;4990297;28;20463;-76
2021/08/09 18:11:34;;;;;;;1.60;1.40;;;22.10;99.90;;;;;;4990145;28;20457;-76
2021/08/09 18:14:00;;;;;;;1.20;1.10;;;22.10;99.90;;;;;;4990416;28;20814;-76
2021/08/09 18:16:30;;;;;;;2.95;1.60;;;22.10;99.90;;;;;;4990514;28;20468;-77
2021/08/09 18:18:57;;;;;;;1.13;0.85;;;22.10;99.90;;;;;;4988972;28;20209;-76
2021/08/09 18:21:24;;;;;;;3.72;1.38;;;22.10;99.90;;;;;;4990542;28;20221;-76
2021/08/09 18:23:52;;;;;;;1.90;1.47;;;22.10;99.90;;;;;;4990464;28;20197;-76
2021/08/09 18:26:19;;;;;;;1.47;1.20;;;22.10;99.90;;;;;;4980418;28;20968;-77
2021/08/09 18:28:46;;;;;;;2.30;1.17;;;22.00;99.90;;;;;;4990661;28;20445;-77
2021/08/09 18:31:13;;;;;;;3.95;1.25;;;22.00;99.90;;;;;;4991242;28;20457;-77
2021/08/09 18:33:40;;;;;;;2.65;1.10;;;22.00;99.90;;;;;;4991322;28;20199;-76
2021/08/09 18:36:08;;;;;;;1.52;1.20;;;22.00;99.90;;;;;;4990979;28;20218;-78
2021/08/09 18:38:35;;;;;;;1.40;1.25;;;21.90;99.90;;;;;;4994132;28;20202;-78
2021/08/09 18:41:03;;;;;;;1.33;1.23;;;21.90;99.90;;;;;;4993870;28;20198;-76
2021/08/09 18:43:30;;;;;;;1.70;1.13;;;21.90;99.90;;;;;;4993256;28;20201;-78
2021/08/09 18:45:57;;;;;;;1.67;1.20;;;21.90;99.90;;;;;;4992836;28;20630;-78
2021/08/09 18:48:24;;;;;;;1.63;1.23;;;21.90;99.90;;;;;;4992229;28;20247;-78
2021/08/09 18:50:51;;;;;;;2.03;1.50;;;21.80;99.90;;;;;;4992462;28;20196;-79
2021/08/09 18:53:17;;;;;;;1.92;1.33;;;21.80;99.90;;;;;;4991435;28;20649;-79
2021/08/09 18:55:44;;;;;;;1.80;1.02;;;21.80;99.90;;;;;;4992519;28;20225;-79
2021/08/09 18:58:16;;;;;;;1.40;1.08;;;21.80;99.90;;;;;;4983991;28;20661;-78
2021/08/09 19:00:43;;;;;;;1.73;1.23;;;21.70;99.90;;;;;;4993600;28;20221;-78
2021/08/09 19:03:10;;;;;;;2.17;1.40;;;21.80;99.90;;;;;;4993717;28;20193;-79
2021/08/09 19:05:38;;;;;;;1.40;1.10;;;21.70;99.90;;;;;;4994305;28;20197;-77
2021/08/09 19:08:05;;;;;;;2.20;1.63;;;21.70;99.90;;;;;;4994666;28;20241;-77
2021/08/09 19:10:32;;;;;;;1.73;1.30;;;21.70;99.90;;;;;;4993760;28;20217;-77
2021/08/09 19:12:59;;;;;;;2.13;1.30;;;21.70;99.90;;;;;;4994486;28;20265;-77
2021/08/09 19:15:28;;;;;;;3.25;1.40;;;21.70;99.90;;;;;;4993037;28;20689;-79
2021/08/09 19:17:55;;;;;;;1.95;1.27;;;21.70;99.90;;;;;;4993812;28;20248;-77
2021/08/09 19:20:21;;;;;;;2.13;1.63;;;21.60;99.90;;;;;;4994425;28;20216;-78
2021/08/09 19:22:48;;;;;;;1.80;1.45;;;21.60;99.90;;;;;;4991660;28;20197;-77
2021/08/09 19:25:15;;;;;;;3.75;1.40;;;21.60;99.90;;;;;;4992660;28;20193;-79
2021/08/09 19:27:42;;;;;;;1.85;1.40;;;21.60;99.90;;;;;;4991434;28;20204;-78
2021/08/09 19:30:10;;;;;;;2.38;1.50;;;21.60;99.90;;;;;;4994645;28;20552;-79
2021/08/09 19:32:38;;;;;;;3.63;1.73;;;21.60;99.90;;;;;;4984686;28;20285;-79
2021/08/09 19:35:06;;;;;;;2.85;1.40;;;21.60;99.90;;;;;;4993599;28;20705;-79
2021/08/09 19:37:33;;;;;;;1.65;1.52;;;21.60;99.90;;;;;;4988023;28;20561;-78
2021/08/09 19:40:00;;;;;;;1.80;1.52;;;21.50;99.90;;;;;;4988238;28;20197;-78
2021/08/09 19:42:27;;;;;;;1.50;1.40;;;21.50;99.90;;;;;;4988372;28;20204;-78
2021/08/09 19:44:54;;;;;;;1.80;1.10;;;21.50;99.90;;;;;;4990755;28;20194;-78
2021/08/09 19:47:21;;;;;;;1.67;1.30;;;21.50;99.90;;;;;;4992510;28;20198;-78
2021/08/09 19:49:49;;;;;;;2.55;1.65;;;21.50;99.90;;;;;;4992681;28;20281;-79
2021/08/09 19:52:15;;;;;;;4.22;1.98;;;21.50;99.90;;;;;;4993665;28;20204;-78
2021/08/09 19:54:42;;;;;;;1.70;1.60;;;21.50;99.90;;;;;;4996870;28;20205;-78
2021/08/09 19:57:09;;;;;;;1.77;1.20;;;21.40;99.90;;;;;;4999800;28;20199;-78
2021/08/09 19:59:36;;;;;;;3.20;1.40;;;21.40;99.90;;;;;;4999823;28;20201;-78
2021/08/09 20:02:04;;;;;;;2.17;1.98;;;21.40;99.90;;;;;;4995435;28;21011;-79
2021/08/09 20:04:32;;;;;;;2.28;1.50;;;21.40;99.90;;;;;;4998174;28;20543;-78
2021/08/09 20:07:01;;;;;;;2.05;1.60;;;21.40;99.90;;;;;;4996132;28;20228;-78
2021/08/09 20:09:27;;;;;;;2.03;1.60;;;21.40;99.90;;;;;;4997761;28;20649;-78
2021/08/09 20:11:54;;;;;;;1.33;1.10;;;21.30;99.90;;;;;;4999507;28;20194;-78
2021/08/09 20:14:21;;;;;;;2.22;1.35;;;21.30;99.90;;;;;;5000103;28;20205;-78
2021/08/09 20:16:48;;;;;;;1.85;1.33;;;21.30;99.90;;;;;;4999590;28;20562;-78
2021/08/09 20:19:14;;;;;;;1.75;1.35;;;21.30;99.90;;;;;;5001598;28;20208;-78
2021/08/09 20:21:41;;;;;;;1.70;1.55;;;21.30;99.90;;;;;;5003109;28;20205;-78
2021/08/09 20:24:09;;;;;;;1.67;1.40;;;21.30;99.90;;;;;;5001600;28;20205;-78
2021/08/09 20:26:36;;;;;;;2.40;1.50;;;21.30;99.90;;;;;;5001909;28;20281;-79
2021/08/09 20:29:03;;;;;;;3.38;1.90;;;21.30;99.90;;;;;;5000583;28;20201;-78
2021/08/09 20:31:30;;;;;;;2.95;1.38;;;21.20;99.90;;;;;;5001291;28;20657;-78
2021/08/09 20:33:57;;;;;;;1.50;1.30;;;21.20;99.90;;;;;;4998810;28;20198;-79
2021/08/09 20:36:24;;;;;;;1.63;1.35;;;21.20;99.90;;;;;;4999188;28;20216;-77
2021/08/09 20:38:50;;;;;;;1.65;1.38;;;21.20;99.90;;;;;;5002374;28;20209;-77
2021/08/09 20:41:18;;;;;;;2.22;1.75;;;21.20;99.90;;;;;;4999066;28;20602;-77
2021/08/09 20:43:45;;;;;;;1.52;1.25;;;21.20;99.90;;;;;;4997737;28;20208;-77
2021/08/09 20:46:12;;;;;;;3.08;1.40;;;21.20;99.90;;;;;;5001555;28;20197;-77
2021/08/09 20:48:39;;;;;;;1.40;1.20;;;21.10;99.90;;;;;;5004228;28;20539;-77
2021/08/09 20:51:07;;;;;;;1.70;1.60;;;21.10;99.90;;;;;;4997279;28;20208;-77
2021/08/09 20:53:36;;;;;;;1.60;1.30;;;21.10;99.90;;;;;;5001524;28;20209;-77
2021/08/09 20:56:02;;;;;;;1.38;1.20;;;21.10;99.90;;;;;;5002645;28;20218;-77
2021/08/09 20:58:30;;;;;;;2.50;1.70;;;21.10;99.90;;;;;;5003371;28;20194;-76
2021/08/09 21:00:57;;;;;;;2.17;1.40;;;21.10;99.90;;;;;;5002489;28;20273;-77
2021/08/09 21:03:24;;;;;;;2.00;1.48;;;21.10;99.90;;;;;;4997481;28;20197;-77
2021/08/09 21:05:51;;;;;;;2.90;1.55;;;21.00;99.90;;;;;;4996286;28;20202;-77
2021/08/09 21:08:19;;;;;;;2.17;1.40;;;21.10;99.90;;;;;;4996219;28;20276;-77
2021/08/09 21:10:46;;;;;;;1.98;1.77;;;21.00;99.90;;;;;;4996423;28;20292;-77
2021/08/09 21:13:13;;;;;;;1.92;1.35;;;21.00;99.90;;;;;;4997958;28;20566;-77
2021/08/09 21:15:41;;;;;;;2.10;1.67;;;21.00;99.90;;;;;;5002470;28;20217;-78
2021/08/09 21:18:08;;;;;;;2.22;1.65;;;21.00;99.90;;;;;;4997211;28;20198;-77
2021/08/09 21:20:36;;;;;;;2.42;1.85;;;20.90;99.90;;;;;;4995040;28;20306;-78
2021/08/09 21:23:03;;;;;;;2.45;1.77;;;20.90;99.90;;;;;;4994845;28;20201;-78
2021/08/09 21:25:29;;;;;;;1.88;1.60;;;20.90;99.90;;;;;;4992339;28;20200;-77
2021/08/09 21:27:56;;;;;;;2.10;1.60;;;20.90;99.90;;;;;;4993062;28;20201;-77
2021/08/09 21:30:23;;;;;;;3.33;1.50;;;20.80;99.90;;;;;;4989963;28;20209;-77
2021/08/09 21:32:51;;;;;;;2.20;1.50;;;20.80;99.90;;;;;;4990801;28;20224;-77
2021/08/09 21:35:18;;;;;;;1.85;1.35;;;20.80;99.90;;;;;;4990620;28;20570;-78
2021/08/09 21:37:45;;;;;;;1.92;1.48;;;20.80;99.90;;;;;;4991885;28;20654;-77
2021/08/09 21:40:12;;;;;;;2.70;1.45;;;20.80;99.90;;;;;;4990908;28;20578;-77
2021/08/09 21:42:39;;;;;;;1.85;1.45;;;20.80;99.90;;;;;;4990148;28;20610;-77
2021/08/09 21:45:07;;;;;;;3.20;1.48;;;20.70;99.90;;;;;;4985760;28;20220;-76
2021/08/09 21:47:35;;;;;;;2.00;1.60;;;20.70;99.90;;;;;;4989294;28;20197;-76
2021/08/09 21:50:03;;;;;;;1.90;1.45;;;20.70;99.90;;;;;;4991223;28;20213;-76
2021/08/09 21:52:29;;;;;;;2.08;1.35;;;20.70;99.90;;;;;;4989853;28;20221;-76
2021/08/09 21:54:56;;;;;;;2.08;1.65;;;20.70;99.90;;;;;;4990556;28;20205;-77
2021/08/09 21:57:23;;;;;;;1.90;1.40;;;20.70;99.90;;;;;;4990233;28;20528;-76
2021/08/09 21:59:50;;;;;;;2.00;1.38;;;20.70;99.90;;;;;;4990236;28;20638;-75
2021/08/09 22:02:16;;;;;;;2.83;1.40;;;20.60;99.90;;;;;;4988078;28;20205;-76
2021/08/09 22:04:43;;;;;;;1.45;1.35;;;20.60;99.90;;;;;;4988730;28;20193;-76
2021/08/09 22:07:11;;;;;;;1.90;1.35;;;20.60;99.90;;;;;;4989674;28;20241;-77
2021/08/09 22:09:38;;;;;;;2.15;1.60;;;20.60;99.90;;;;;;4989547;28;20208;-76
2021/08/09 22:12:06;;;;;;;1.75;1.30;;;20.60;99.90;;;;;;4989673;28;20270;-76
2021/08/09 22:14:33;;;;;;;2.38;1.55;;;20.60;99.90;;;;;;4990670;28;20197;-77
2021/08/09 22:17:00;;;;;;;1.70;1.50;;;20.50;99.90;;;;;;4988726;28;20681;-77
2021/08/09 22:19:27;;;;;;;1.92;1.75;;;20.50;99.90;;;;;;4990009;28;20197;-77
2021/08/09 22:21:54;;;;;;;2.15;1.55;;;20.50;99.90;;;;;;4990063;28;20284;-76
2021/08/09 22:24:22;;;;;;;2.13;1.55;;;20.50;99.90;;;;;;4990157;28;20204;-77
2021/08/09 22:26:49;;;;;;;2.65;1.70;;;20.50;99.90;;;;;;4986068;28;20214;-76
2021/08/09 22:29:16;;;;;;;3.25;1.90;;;20.50;99.90;;;;;;4990622;28;20677;-76
2021/08/09 22:31:42;;;;;;;1.70;1.50;;;20.50;99.90;;;;;;4990344;28;20212;-78
2021/08/09 22:34:09;;;;;;;2.92;2.00;;;20.50;99.90;;;;;;4989820;28;20205;-77
2021/08/09 22:36:36;;;;;;;1.73;1.50;;;20.50;99.90;;;;;;4990382;28;21155;-77
2021/08/09 22:39:04;;;;;;;2.15;1.70;;;20.50;99.90;;;;;;4989223;28;20205;-77
2021/08/09 22:41:32;;;;;;;2.00;1.45;;;20.50;99.90;;;;;;4989097;28;20202;-76
2021/08/09 22:43:59;;;;;;;2.15;1.60;;;20.40;99.90;;;;;;4988919;28;20209;-77
2021/08/09 22:46:26;;;;;;;2.33;1.40;;;20.40;99.90;;;;;;4994529;28;20208;-76
2021/08/09 22:48:52;;;;;;;1.92;1.50;;;20.40;99.90;;;;;;4993081;28;20197;-76
2021/08/09 22:51:19;;;;;;;1.75;1.35;;;20.40;99.90;;;;;;4990645;28;20550;-76
2021/08/09 22:53:46;;;;;;;2.05;1.70;;;20.30;99.90;;;;;;4991544;28;20201;-76
2021/08/09 22:56:13;;;;;;;1.75;1.50;;;20.30;99.90;;;;;;4990403;28;20243;-76
2021/08/09 22:58:42;;;;;;;2.28;1.25;;;20.30;99.90;;;;;;4983194;28;20647;-76
2021/08/09 23:01:08;;;;;;;1.98;1.33;;;20.30;99.90;;;;;;4990537;28;20658;-76
2021/08/09 23:03:36;;;;;;;2.10;1.40;;;20.30;99.90;;;;;;4990522;28;20201;-76
2021/08/09 23:06:02;;;;;;;2.00;1.80;;;20.30;99.90;;;;;;4989935;28;20224;-76
2021/08/09 23:08:29;;;;;;;1.98;1.60;;;20.30;99.90;;;;;;4989771;28;20233;-76
2021/08/09 23:10:56;;;;;;;1.40;1.30;;;20.20;99.90;;;;;;4989414;28;20287;-76
2021/08/09 23:13:23;;;;;;;2.45;1.80;;;20.20;99.90;;;;;;4990536;28;20205;-75
2021/08/09 23:15:51;;;;;;;2.60;1.70;;;20.20;99.90;;;;;;4989642;28;20190;-75
2021/08/09 23:18:18;;;;;;;1.95;1.38;;;20.20;99.90;;;;;;4990562;28;20261;-76
2021/08/09 23:20:45;;;;;;;1.92;1.48;;;20.10;99.90;;;;;;4990313;28;20645;-76
2021/08/09 23:23:12;;;;;;;2.28;2.03;;;20.10;99.90;;;;;;4990157;28;20206;-76
2021/08/09 23:25:39;;;;;;;2.33;2.13;;;20.20;99.90;;;;;;4988798;28;20323;-76
2021/08/09 23:28:06;;;;;;;2.35;1.83;;;20.10;99.90;;;;;;4990295;28;20212;-76
2021/08/09 23:30:33;;;;;;;2.13;1.92;;;20.10;99.90;;;;;;4992666;28;20264;-76
2021/08/09 23:33:01;;;;;;;3.35;1.70;;;20.10;99.90;;;;;;4994253;28;20193;-76
2021/08/09 23:35:28;;;;;;;2.00;1.73;;;20.10;99.90;;;;;;4993742;28;20198;-75
2021/08/09 23:37:56;;;;;;;1.70;1.40;;;20.10;99.90;;;;;;4993405;28;20221;-75
2021/08/09 23:40:22;;;;;;;1.73;1.20;;;20.00;99.90;;;;;;4992777;28;20225;-76
2021/08/09 23:42:49;;;;;;;1.65;1.50;;;20.10;99.90;;;;;;4993455;28;20189;-75
2021/08/09 23:45:16;;;;;;;1.60;1.40;;;20.00;99.90;;;;;;4994384;28;20207;-75
2021/08/09 23:47:43;;;;;;;3.60;2.10;;;20.00;99.90;;;;;;4993417;28;20206;-76
2021/08/09 23:50:11;;;;;;;2.35;1.70;;;20.00;99.90;;;;;;4993860;28;20662;-76
2021/08/09 23:52:38;;;;;;;2.88;1.75;;;19.90;99.90;;;;;;4993688;28;20642;-75
2021/08/09 23:55:05;;;;;;;1.80;1.70;;;20.00;99.90;;;;;;4993534;28;20202;-75
2021/08/09 23:57:32;;;;;;;3.55;1.70;;;19.90;99.90;;;;;;4993696;28;20217;-76
2021/08/09 23:59:58;;;;;;;2.03;1.85;;;19.90;99.90;;;;;;4992509;28;20202;-75
